sensor_id;sensor_type;location;lat;lon;timestamp;P1;durP1;ratioP1;P2;durP2;ratioP2
18280;SDS011;9266;51.132;17.062;2023-04-06T00:00:31;88.97;;;54.60;;
18280;SDS011;9266;51.132;17.062;2023-04-06T00:03:00;83.90;;;53.53;;
18280;SDS011;9266;51.132;17.062;2023-04-06T00:05:27;89.90;;;55.77;;
18280;SDS011;9266;51.132;17.062;2023-04-06T00:07:55;95.80;;;55.10;;
18280;SDS011;9266;51.132;17.062;2023-04-06T00:10:23;88.20;;;55.57;;
18280;SDS011;9266;51.132;17.062;2023-04-06T00:12:50;91.63;;;55.33;;
18280;SDS011;9266;51.132;17.062;2023-04-06T00:15:17;92.90;;;55.47;;
18280;SDS011;9266;51.132;17.062;2023-04-06T00:17:44;86.37;;;52.33;;
18280;SDS011;9266;51.132;17.062;2023-04-06T00:20:13;89.30;;;52.57;;
18280;SDS011;9266;51.132;17.062;2023-04-06T00:22:40;93.37;;;52.93;;
18280;SDS011;9266;51.132;17.062;2023-04-06T00:25:07;84.67;;;52.70;;
18280;SDS011;9266;51.132;17.062;2023-04-06T00:27:35;87.97;;;52.43;;
18280;SDS011;9266;51.132;17.062;2023-04-06T00:30:02;109.00;;;68.97;;
18280;SDS011;9266;51.132;17.062;2023-04-06T00:32:29;108.63;;;67.53;;
18280;SDS011;9266;51.132;17.062;2023-04-06T00:34:56;103.30;;;62.47;;
18280;SDS011;9266;51.132;17.062;2023-04-06T00:37:25;107.33;;;66.20;;
18280;SDS011;9266;51.132;17.062;2023-04-06T00:39:52;100.10;;;61.07;;
18280;SDS011;9266;51.132;17.062;2023-04-06T00:42:19;97.37;;;57.67;;
18280;SDS011;9266;51.132;17.062;2023-04-06T00:44:50;97.63;;;61.23;;
18280;SDS011;9266;51.132;17.062;2023-04-06T00:47:18;103.73;;;62.27;;
18280;SDS011;9266;51.132;17.062;2023-04-06T00:49:45;76.33;;;48.47;;
18280;SDS011;9266;51.132;17.062;2023-04-06T00:52:12;78.33;;;48.10;;
18280;SDS011;9266;51.132;17.062;2023-04-06T00:54:41;79.23;;;47.07;;
18280;SDS011;9266;51.132;17.062;2023-04-06T00:57:08;69.80;;;45.80;;
18280;SDS011;9266;51.132;17.062;2023-04-06T00:59:35;76.63;;;47.27;;
18280;SDS011;9266;51.132;17.062;2023-04-06T01:02:02;74.10;;;46.80;;
18280;SDS011;9266;51.132;17.062;2023-04-06T01:04:29;70.37;;;44.87;;
18280;SDS011;9266;51.132;17.062;2023-04-06T01:06:56;63.07;;;43.63;;
18280;SDS011;9266;51.132;17.062;2023-04-06T01:09:23;65.20;;;43.80;;
18280;SDS011;9266;51.132;17.062;2023-04-06T01:11:52;68.13;;;42.07;;
18280;SDS011;9266;51.132;17.062;2023-04-06T01:14:20;63.57;;;42.40;;
18280;SDS011;9266;51.132;17.062;2023-04-06T01:16:48;62.23;;;41.57;;
18280;SDS011;9266;51.132;17.062;2023-04-06T01:19:15;61.70;;;42.37;;
18280;SDS011;9266;51.132;17.062;2023-04-06T01:21:42;61.73;;;42.50;;
18280;SDS011;9266;51.132;17.062;2023-04-06T01:24:10;60.23;;;41.10;;
18280;SDS011;9266;51.132;17.062;2023-04-06T01:26:38;65.07;;;42.57;;
18280;SDS011;9266;51.132;17.062;2023-04-06T01:29:05;60.40;;;40.63;;
18280;SDS011;9266;51.132;17.062;2023-04-06T01:31:32;60.67;;;42.13;;
18280;SDS011;9266;51.132;17.062;2023-04-06T01:33:59;61.80;;;41.10;;
18280;SDS011;9266;51.132;17.062;2023-04-06T01:36:26;63.10;;;41.50;;
18280;SDS011;9266;51.132;17.062;2023-04-06T01:38:53;62.03;;;42.30;;
18280;SDS011;9266;51.132;17.062;2023-04-06T01:41:22;57.80;;;39.17;;
18280;SDS011;9266;51.132;17.062;2023-04-06T01:43:49;58.40;;;39.40;;
18280;SDS011;9266;51.132;17.062;2023-04-06T01:46:19;65.10;;;42.87;;
18280;SDS011;9266;51.132;17.062;2023-04-06T01:48:46;58.37;;;40.37;;
18280;SDS011;9266;51.132;17.062;2023-04-06T01:51:13;62.07;;;42.03;;
18280;SDS011;9266;51.132;17.062;2023-04-06T01:53:41;67.67;;;42.80;;
18280;SDS011;9266;51.132;17.062;2023-04-06T01:56:09;62.40;;;42.60;;
18280;SDS011;9266;51.132;17.062;2023-04-06T01:58:37;61.73;;;42.00;;
18280;SDS011;9266;51.132;17.062;2023-04-06T02:01:05;63.67;;;41.57;;
18280;SDS011;9266;51.132;17.062;2023-04-06T02:03:32;71.13;;;44.10;;
18280;SDS011;9266;51.132;17.062;2023-04-06T02:05:59;68.70;;;42.70;;
18280;SDS011;9266;51.132;17.062;2023-04-06T02:08:25;59.87;;;40.70;;
18280;SDS011;9266;51.132;17.062;2023-04-06T02:10:52;61.60;;;41.83;;
18280;SDS011;9266;51.132;17.062;2023-04-06T02:13:19;57.23;;;40.47;;
18280;SDS011;9266;51.132;17.062;2023-04-06T02:15:48;65.97;;;41.17;;
18280;SDS011;9266;51.132;17.062;2023-04-06T02:18:15;58.00;;;39.03;;
18280;SDS011;9266;51.132;17.062;2023-04-06T02:20:43;53.83;;;36.70;;
18280;SDS011;9266;51.132;17.062;2023-04-06T02:23:10;49.30;;;36.67;;
18280;SDS011;9266;51.132;17.062;2023-04-06T02:25:37;54.53;;;36.87;;
18280;SDS011;9266;51.132;17.062;2023-04-06T02:28:05;51.90;;;36.53;;
18280;SDS011;9266;51.132;17.062;2023-04-06T02:30:32;66.13;;;41.83;;
18280;SDS011;9266;51.132;17.062;2023-04-06T02:33:00;63.60;;;40.80;;
18280;SDS011;9266;51.132;17.062;2023-04-06T02:35:28;64.83;;;41.50;;
18280;SDS011;9266;51.132;17.062;2023-04-06T02:37:55;75.20;;;46.70;;
18280;SDS011;9266;51.132;17.062;2023-04-06T02:40:22;70.33;;;46.13;;
18280;SDS011;9266;51.132;17.062;2023-04-06T02:42:49;79.50;;;49.87;;
18280;SDS011;9266;51.132;17.062;2023-04-06T02:45:16;76.40;;;49.57;;
18280;SDS011;9266;51.132;17.062;2023-04-06T02:47:44;75.73;;;49.83;;
18280;SDS011;9266;51.132;17.062;2023-04-06T02:50:12;80.67;;;50.27;;
18280;SDS011;9266;51.132;17.062;2023-04-06T02:52:40;83.97;;;51.53;;
18280;SDS011;9266;51.132;17.062;2023-04-06T02:55:07;75.53;;;49.43;;
18280;SDS011;9266;51.132;17.062;2023-04-06T02:57:35;77.70;;;49.47;;
18280;SDS011;9266;51.132;17.062;2023-04-06T03:00:02;78.47;;;49.17;;
18280;SDS011;9266;51.132;17.062;2023-04-06T03:02:31;76.93;;;49.10;;
18280;SDS011;9266;51.132;17.062;2023-04-06T03:04:58;78.57;;;51.17;;
18280;SDS011;9266;51.132;17.062;2023-04-06T03:07:27;79.93;;;49.63;;
18280;SDS011;9266;51.132;17.062;2023-04-06T03:09:54;76.50;;;48.90;;
18280;SDS011;9266;51.132;17.062;2023-04-06T03:12:21;75.50;;;46.77;;
18280;SDS011;9266;51.132;17.062;2023-04-06T03:14:48;67.40;;;44.83;;
18280;SDS011;9266;51.132;17.062;2023-04-06T03:17:15;71.83;;;46.87;;
18280;SDS011;9266;51.132;17.062;2023-04-06T03:19:42;70.43;;;44.67;;
18280;SDS011;9266;51.132;17.062;2023-04-06T03:22:09;65.87;;;45.43;;
18280;SDS011;9266;51.132;17.062;2023-04-06T03:24:37;69.90;;;45.17;;
18280;SDS011;9266;51.132;17.062;2023-04-06T03:27:04;68.50;;;44.90;;
18280;SDS011;9266;51.132;17.062;2023-04-06T03:29:31;75.90;;;46.47;;
18280;SDS011;9266;51.132;17.062;2023-04-06T03:31:58;72.13;;;46.87;;
18280;SDS011;9266;51.132;17.062;2023-04-06T03:34:25;69.73;;;46.53;;
18280;SDS011;9266;51.132;17.062;2023-04-06T03:36:52;69.60;;;44.80;;
18280;SDS011;9266;51.132;17.062;2023-04-06T03:39:19;67.97;;;45.27;;
18280;SDS011;9266;51.132;17.062;2023-04-06T03:41:48;73.83;;;47.53;;
18280;SDS011;9266;51.132;17.062;2023-04-06T03:44:15;67.13;;;45.30;;
18280;SDS011;9266;51.132;17.062;2023-04-06T03:46:42;73.73;;;45.90;;
18280;SDS011;9266;51.132;17.062;2023-04-06T03:49:09;71.23;;;46.10;;
18280;SDS011;9266;51.132;17.062;2023-04-06T03:51:36;68.63;;;44.47;;
18280;SDS011;9266;51.132;17.062;2023-04-06T03:54:03;71.87;;;45.73;;
18280;SDS011;9266;51.132;17.062;2023-04-06T03:56:30;64.27;;;43.13;;
18280;SDS011;9266;51.132;17.062;2023-04-06T03:58:58;74.27;;;44.60;;
18280;SDS011;9266;51.132;17.062;2023-04-06T04:01:26;64.60;;;42.87;;
18280;SDS011;9266;51.132;17.062;2023-04-06T04:03:53;66.30;;;43.40;;
18280;SDS011;9266;51.132;17.062;2023-04-06T04:06:20;64.03;;;42.23;;
18280;SDS011;9266;51.132;17.062;2023-04-06T04:08:47;68.93;;;42.63;;
18280;SDS011;9266;51.132;17.062;2023-04-06T04:11:15;71.17;;;43.80;;
18280;SDS011;9266;51.132;17.062;2023-04-06T04:13:42;64.97;;;42.43;;
18280;SDS011;9266;51.132;17.062;2023-04-06T04:16:10;71.83;;;42.77;;
18280;SDS011;9266;51.132;17.062;2023-04-06T04:18:37;71.70;;;46.40;;
18280;SDS011;9266;51.132;17.062;2023-04-06T04:21:04;65.77;;;42.80;;
18280;SDS011;9266;51.132;17.062;2023-04-06T04:23:31;67.60;;;44.07;;
18280;SDS011;9266;51.132;17.062;2023-04-06T04:25:58;66.47;;;42.73;;
18280;SDS011;9266;51.132;17.062;2023-04-06T04:28:25;79.40;;;46.57;;
18280;SDS011;9266;51.132;17.062;2023-04-06T04:30:52;71.93;;;43.77;;
18280;SDS011;9266;51.132;17.062;2023-04-06T04:33:23;69.90;;;45.40;;
18280;SDS011;9266;51.132;17.062;2023-04-06T04:35:50;75.90;;;47.80;;
18280;SDS011;9266;51.132;17.062;2023-04-06T04:38:17;70.53;;;45.47;;
18280;SDS011;9266;51.132;17.062;2023-04-06T04:40:44;84.30;;;48.43;;
18280;SDS011;9266;51.132;17.062;2023-04-06T04:43:11;82.00;;;49.53;;
18280;SDS011;9266;51.132;17.062;2023-04-06T04:45:38;78.40;;;50.87;;
18280;SDS011;9266;51.132;17.062;2023-04-06T04:48:05;74.63;;;50.73;;
18280;SDS011;9266;51.132;17.062;2023-04-06T04:50:35;92.43;;;55.43;;
18280;SDS011;9266;51.132;17.062;2023-04-06T04:53:02;80.07;;;51.77;;
18280;SDS011;9266;51.132;17.062;2023-04-06T04:55:31;83.33;;;53.80;;
18280;SDS011;9266;51.132;17.062;2023-04-06T04:57:58;90.40;;;56.87;;
18280;SDS011;9266;51.132;17.062;2023-04-06T05:00:25;87.60;;;57.43;;
18280;SDS011;9266;51.132;17.062;2023-04-06T05:02:52;108.40;;;62.77;;
18280;SDS011;9266;51.132;17.062;2023-04-06T05:05:19;104.43;;;62.17;;
18280;SDS011;9266;51.132;17.062;2023-04-06T05:07:47;100.83;;;61.43;;
18280;SDS011;9266;51.132;17.062;2023-04-06T05:10:15;96.90;;;57.77;;
18280;SDS011;9266;51.132;17.062;2023-04-06T05:12:42;78.93;;;54.57;;
18280;SDS011;9266;51.132;17.062;2023-04-06T05:15:09;87.80;;;55.30;;
18280;SDS011;9266;51.132;17.062;2023-04-06T05:17:36;108.53;;;65.87;;
18280;SDS011;9266;51.132;17.062;2023-04-06T05:20:04;90.30;;;62.77;;
18280;SDS011;9266;51.132;17.062;2023-04-06T05:22:32;72.30;;;48.33;;
18280;SDS011;9266;51.132;17.062;2023-04-06T05:25:00;73.67;;;49.97;;
18280;SDS011;9266;51.132;17.062;2023-04-06T05:27:28;72.10;;;49.67;;
18280;SDS011;9266;51.132;17.062;2023-04-06T05:29:55;92.60;;;71.07;;
18280;SDS011;9266;51.132;17.062;2023-04-06T05:32:22;54.27;;;38.37;;
18280;SDS011;9266;51.132;17.062;2023-04-06T05:34:49;56.97;;;38.10;;
18280;SDS011;9266;51.132;17.062;2023-04-06T05:37:16;61.40;;;39.47;;
18280;SDS011;9266;51.132;17.062;2023-04-06T05:39:43;56.60;;;38.87;;
18280;SDS011;9266;51.132;17.062;2023-04-06T05:42:12;58.60;;;40.90;;
18280;SDS011;9266;51.132;17.062;2023-04-06T05:44:40;62.27;;;40.77;;
18280;SDS011;9266;51.132;17.062;2023-04-06T05:47:07;65.60;;;42.87;;
18280;SDS011;9266;51.132;17.062;2023-04-06T05:49:34;55.90;;;38.17;;
18280;SDS011;9266;51.132;17.062;2023-04-06T05:52:01;58.27;;;37.97;;
18280;SDS011;9266;51.132;17.062;2023-04-06T05:54:29;51.37;;;37.07;;
18280;SDS011;9266;51.132;17.062;2023-04-06T05:56:56;54.50;;;36.93;;
18280;SDS011;9266;51.132;17.062;2023-04-06T05:59:24;53.73;;;38.73;;
18280;SDS011;9266;51.132;17.062;2023-04-06T06:01:51;53.47;;;36.10;;
18280;SDS011;9266;51.132;17.062;2023-04-06T06:04:19;62.73;;;44.37;;
18280;SDS011;9266;51.132;17.062;2023-04-06T06:06:46;59.50;;;38.70;;
18280;SDS011;9266;51.132;17.062;2023-04-06T06:09:13;68.43;;;47.23;;
18280;SDS011;9266;51.132;17.062;2023-04-06T06:11:40;50.70;;;33.33;;
18280;SDS011;9266;51.132;17.062;2023-04-06T06:14:07;50.10;;;33.77;;
18280;SDS011;9266;51.132;17.062;2023-04-06T06:16:35;81.10;;;50.33;;
18280;SDS011;9266;51.132;17.062;2023-04-06T06:19:02;60.20;;;40.10;;
18280;SDS011;9266;51.132;17.062;2023-04-06T06:21:29;45.93;;;32.43;;
18280;SDS011;9266;51.132;17.062;2023-04-06T06:23:56;44.87;;;30.77;;
18280;SDS011;9266;51.132;17.062;2023-04-06T06:26:23;45.33;;;29.20;;
18280;SDS011;9266;51.132;17.062;2023-04-06T06:28:51;46.90;;;30.13;;
18280;SDS011;9266;51.132;17.062;2023-04-06T06:31:18;47.97;;;29.53;;
18280;SDS011;9266;51.132;17.062;2023-04-06T06:33:49;48.47;;;33.13;;
18280;SDS011;9266;51.132;17.062;2023-04-06T06:36:16;47.80;;;33.50;;
18280;SDS011;9266;51.132;17.062;2023-04-06T06:38:43;79.43;;;48.03;;
18280;SDS011;9266;51.132;17.062;2023-04-06T06:41:10;46.87;;;32.07;;
18280;SDS011;9266;51.132;17.062;2023-04-06T06:43:38;45.70;;;29.63;;
18280;SDS011;9266;51.132;17.062;2023-04-06T06:46:05;40.23;;;27.93;;
18280;SDS011;9266;51.132;17.062;2023-04-06T06:48:32;39.93;;;28.20;;
18280;SDS011;9266;51.132;17.062;2023-04-06T06:51:01;78.67;;;44.37;;
18280;SDS011;9266;51.132;17.062;2023-04-06T06:53:28;42.37;;;29.97;;
18280;SDS011;9266;51.132;17.062;2023-04-06T06:55:55;36.67;;;27.97;;
18280;SDS011;9266;51.132;17.062;2023-04-06T06:58:22;47.60;;;31.17;;
18280;SDS011;9266;51.132;17.062;2023-04-06T07:00:49;48.60;;;33.03;;
18280;SDS011;9266;51.132;17.062;2023-04-06T07:03:16;53.33;;;38.37;;
18280;SDS011;9266;51.132;17.062;2023-04-06T07:05:46;43.03;;;32.33;;
18280;SDS011;9266;51.132;17.062;2023-04-06T07:08:19;46.60;;;34.03;;
18280;SDS011;9266;51.132;17.062;2023-04-06T07:10:46;44.80;;;31.17;;
18280;SDS011;9266;51.132;17.062;2023-04-06T07:13:13;44.67;;;31.43;;
18280;SDS011;9266;51.132;17.062;2023-04-06T07:15:44;38.70;;;28.67;;
18280;SDS011;9266;51.132;17.062;2023-04-06T07:18:11;44.23;;;29.27;;
18280;SDS011;9266;51.132;17.062;2023-04-06T07:20:38;38.67;;;27.33;;
18280;SDS011;9266;51.132;17.062;2023-04-06T07:23:05;39.73;;;27.87;;
18280;SDS011;9266;51.132;17.062;2023-04-06T07:25:33;35.97;;;26.90;;
18280;SDS011;9266;51.132;17.062;2023-04-06T07:28:01;32.23;;;24.83;;
18280;SDS011;9266;51.132;17.062;2023-04-06T07:30:29;34.37;;;24.97;;
18280;SDS011;9266;51.132;17.062;2023-04-06T07:32:56;28.50;;;22.40;;
18280;SDS011;9266;51.132;17.062;2023-04-06T07:35:24;33.27;;;23.03;;
18280;SDS011;9266;51.132;17.062;2023-04-06T07:37:52;31.53;;;22.87;;
18280;SDS011;9266;51.132;17.062;2023-04-06T07:40:20;28.80;;;20.80;;
18280;SDS011;9266;51.132;17.062;2023-04-06T07:42:48;30.93;;;19.97;;
18280;SDS011;9266;51.132;17.062;2023-04-06T07:45:16;26.93;;;19.23;;
18280;SDS011;9266;51.132;17.062;2023-04-06T07:47:43;27.53;;;20.53;;
18280;SDS011;9266;51.132;17.062;2023-04-06T07:50:10;20.70;;;14.83;;
18280;SDS011;9266;51.132;17.062;2023-04-06T07:52:38;21.07;;;14.47;;
18280;SDS011;9266;51.132;17.062;2023-04-06T07:55:05;19.47;;;14.80;;
18280;SDS011;9266;51.132;17.062;2023-04-06T07:57:32;22.70;;;16.23;;
18280;SDS011;9266;51.132;17.062;2023-04-06T08:00:01;23.77;;;16.53;;
18280;SDS011;9266;51.132;17.062;2023-04-06T08:02:29;13.23;;;10.50;;
18280;SDS011;9266;51.132;17.062;2023-04-06T08:04:56;23.30;;;14.23;;
18280;SDS011;9266;51.132;17.062;2023-04-06T08:07:23;15.43;;;12.37;;
18280;SDS011;9266;51.132;17.062;2023-04-06T08:09:51;19.73;;;15.07;;
18280;SDS011;9266;51.132;17.062;2023-04-06T08:12:19;23.23;;;15.53;;
18280;SDS011;9266;51.132;17.062;2023-04-06T08:14:47;20.03;;;16.10;;
18280;SDS011;9266;51.132;17.062;2023-04-06T08:17:15;16.87;;;11.67;;
18280;SDS011;9266;51.132;17.062;2023-04-06T08:19:42;19.93;;;12.50;;
18280;SDS011;9266;51.132;17.062;2023-04-06T08:22:10;23.67;;;14.17;;
18280;SDS011;9266;51.132;17.062;2023-04-06T08:24:37;17.87;;;12.13;;
18280;SDS011;9266;51.132;17.062;2023-04-06T08:27:04;16.60;;;11.73;;
18280;SDS011;9266;51.132;17.062;2023-04-06T08:29:31;15.90;;;11.50;;
18280;SDS011;9266;51.132;17.062;2023-04-06T08:31:58;15.17;;;10.67;;
18280;SDS011;9266;51.132;17.062;2023-04-06T08:34:29;17.20;;;10.93;;
18280;SDS011;9266;51.132;17.062;2023-04-06T08:36:57;14.23;;;10.90;;
18280;SDS011;9266;51.132;17.062;2023-04-06T08:39:24;17.20;;;11.27;;
18280;SDS011;9266;51.132;17.062;2023-04-06T08:41:52;17.73;;;12.40;;
18280;SDS011;9266;51.132;17.062;2023-04-06T08:44:22;15.17;;;12.00;;
18280;SDS011;9266;51.132;17.062;2023-04-06T08:46:49;20.03;;;15.37;;
18280;SDS011;9266;51.132;17.062;2023-04-06T08:49:17;19.70;;;13.40;;
18280;SDS011;9266;51.132;17.062;2023-04-06T08:51:46;17.00;;;13.10;;
18280;SDS011;9266;51.132;17.062;2023-04-06T08:54:13;20.13;;;13.67;;
18280;SDS011;9266;51.132;17.062;2023-04-06T08:56:41;20.03;;;14.17;;
18280;SDS011;9266;51.132;17.062;2023-04-06T08:59:09;17.67;;;13.57;;
18280;SDS011;9266;51.132;17.062;2023-04-06T09:01:38;18.17;;;13.07;;
18280;SDS011;9266;51.132;17.062;2023-04-06T09:04:07;17.27;;;12.70;;
18280;SDS011;9266;51.132;17.062;2023-04-06T09:06:35;16.17;;;12.20;;
18280;SDS011;9266;51.132;17.062;2023-04-06T09:09:04;17.67;;;11.90;;
18280;SDS011;9266;51.132;17.062;2023-04-06T09:11:41;17.17;;;11.97;;
18280;SDS011;9266;51.132;17.062;2023-04-06T09:14:12;18.17;;;11.03;;
18280;SDS011;9266;51.132;17.062;2023-04-06T09:16:40;14.17;;;9.40;;
18280;SDS011;9266;51.132;17.062;2023-04-06T09:19:07;11.20;;;8.90;;
18280;SDS011;9266;51.132;17.062;2023-04-06T09:21:35;11.73;;;8.83;;
18280;SDS011;9266;51.132;17.062;2023-04-06T09:24:02;23.73;;;16.97;;
18280;SDS011;9266;51.132;17.062;2023-04-06T09:26:32;12.77;;;9.27;;
18280;SDS011;9266;51.132;17.062;2023-04-06T09:29:10;14.27;;;10.13;;
18280;SDS011;9266;51.132;17.062;2023-04-06T09:31:47;10.63;;;9.00;;
18280;SDS011;9266;51.132;17.062;2023-04-06T09:34:20;11.13;;;9.43;;
18280;SDS011;9266;51.132;17.062;2023-04-06T09:36:47;12.37;;;10.83;;
18280;SDS011;9266;51.132;17.062;2023-04-06T09:39:19;11.70;;;8.53;;
18280;SDS011;9266;51.132;17.062;2023-04-06T09:41:49;11.17;;;8.53;;
18280;SDS011;9266;51.132;17.062;2023-04-06T09:44:17;10.20;;;8.80;;
18280;SDS011;9266;51.132;17.062;2023-04-06T09:46:45;12.07;;;10.23;;
18280;SDS011;9266;51.132;17.062;2023-04-06T09:49:13;12.93;;;9.37;;
18280;SDS011;9266;51.132;17.062;2023-04-06T09:51:41;11.57;;;9.20;;
18280;SDS011;9266;51.132;17.062;2023-04-06T09:54:11;13.53;;;9.60;;
18280;SDS011;9266;51.132;17.062;2023-04-06T09:56:45;11.23;;;8.83;;
18280;SDS011;9266;51.132;17.062;2023-04-06T09:59:14;11.60;;;8.57;;
18280;SDS011;9266;51.132;17.062;2023-04-06T10:01:48;13.70;;;8.67;;
18280;SDS011;9266;51.132;17.062;2023-04-06T10:04:21;10.83;;;8.70;;
18280;SDS011;9266;51.132;17.062;2023-04-06T10:06:54;12.33;;;9.27;;
18280;SDS011;9266;51.132;17.062;2023-04-06T10:09:24;10.90;;;9.00;;
18280;SDS011;9266;51.132;17.062;2023-04-06T10:11:54;11.77;;;8.93;;
18280;SDS011;9266;51.132;17.062;2023-04-06T10:14:22;11.73;;;8.53;;
18280;SDS011;9266;51.132;17.062;2023-04-06T10:16:49;12.00;;;9.40;;
18280;SDS011;9266;51.132;17.062;2023-04-06T10:19:19;13.93;;;9.13;;
18280;SDS011;9266;51.132;17.062;2023-04-06T10:21:51;13.53;;;8.73;;
18280;SDS011;9266;51.132;17.062;2023-04-06T10:24:22;15.80;;;9.53;;
18280;SDS011;9266;51.132;17.062;2023-04-06T10:26:57;14.77;;;8.83;;
18280;SDS011;9266;51.132;17.062;2023-04-06T10:29:25;10.30;;;7.53;;
18280;SDS011;9266;51.132;17.062;2023-04-06T10:31:52;8.67;;;7.03;;
18280;SDS011;9266;51.132;17.062;2023-04-06T10:34:20;9.43;;;7.07;;
18280;SDS011;9266;51.132;17.062;2023-04-06T10:36:47;11.03;;;8.10;;
18280;SDS011;9266;51.132;17.062;2023-04-06T10:39:14;9.40;;;7.67;;
18280;SDS011;9266;51.132;17.062;2023-04-06T10:41:53;8.80;;;7.03;;
18280;SDS011;9266;51.132;17.062;2023-04-06T10:44:23;10.07;;;7.40;;
18280;SDS011;9266;51.132;17.062;2023-04-06T10:46:54;11.20;;;7.10;;
18280;SDS011;9266;51.132;17.062;2023-04-06T10:49:22;12.80;;;8.43;;
18280;SDS011;9266;51.132;17.062;2023-04-06T10:51:51;11.47;;;7.27;;
18280;SDS011;9266;51.132;17.062;2023-04-06T10:54:20;11.30;;;7.33;;
18280;SDS011;9266;51.132;17.062;2023-04-06T10:56:51;10.60;;;7.83;;
18280;SDS011;9266;51.132;17.062;2023-04-06T10:59:19;10.90;;;7.50;;
18280;SDS011;9266;51.132;17.062;2023-04-06T11:01:46;10.73;;;7.87;;
18280;SDS011;9266;51.132;17.062;2023-04-06T11:04:15;10.20;;;7.73;;
18280;SDS011;9266;51.132;17.062;2023-04-06T11:06:45;10.30;;;7.10;;
18280;SDS011;9266;51.132;17.062;2023-04-06T11:09:22;10.77;;;7.47;;
18280;SDS011;9266;51.132;17.062;2023-04-06T11:11:53;10.43;;;7.67;;
18280;SDS011;9266;51.132;17.062;2023-04-06T11:14:21;10.23;;;7.67;;
18280;SDS011;9266;51.132;17.062;2023-04-06T11:16:48;10.57;;;7.87;;
18280;SDS011;9266;51.132;17.062;2023-04-06T11:19:16;11.60;;;8.00;;
18280;SDS011;9266;51.132;17.062;2023-04-06T11:21:44;9.20;;;6.97;;
18280;SDS011;9266;51.132;17.062;2023-04-06T11:24:13;11.17;;;7.80;;
18280;SDS011;9266;51.132;17.062;2023-04-06T11:26:42;11.60;;;8.03;;
18280;SDS011;9266;51.132;17.062;2023-04-06T11:29:12;10.97;;;7.63;;
18280;SDS011;9266;51.132;17.062;2023-04-06T11:31:40;11.57;;;8.07;;
18280;SDS011;9266;51.132;17.062;2023-04-06T11:36:39;11.70;;;8.37;;
18280;SDS011;9266;51.132;17.062;2023-04-06T11:39:09;10.50;;;8.17;;
18280;SDS011;9266;51.132;17.062;2023-04-06T11:41:36;11.90;;;8.20;;
18280;SDS011;9266;51.132;17.062;2023-04-06T11:44:03;9.83;;;8.13;;
18280;SDS011;9266;51.132;17.062;2023-04-06T11:46:33;11.27;;;9.03;;
18280;SDS011;9266;51.132;17.062;2023-04-06T11:49:00;9.40;;;8.43;;
18280;SDS011;9266;51.132;17.062;2023-04-06T11:51:28;10.07;;;8.60;;
18280;SDS011;9266;51.132;17.062;2023-04-06T11:53:55;10.83;;;8.70;;
18280;SDS011;9266;51.132;17.062;2023-04-06T11:56:23;10.73;;;8.87;;
18280;SDS011;9266;51.132;17.062;2023-04-06T11:58:57;9.97;;;8.90;;
18280;SDS011;9266;51.132;17.062;2023-04-06T12:01:26;12.93;;;8.93;;
18280;SDS011;9266;51.132;17.062;2023-04-06T12:03:54;19.67;;;13.67;;
18280;SDS011;9266;51.132;17.062;2023-04-06T12:06:21;13.50;;;10.00;;
18280;SDS011;9266;51.132;17.062;2023-04-06T12:08:49;14.93;;;11.00;;
18280;SDS011;9266;51.132;17.062;2023-04-06T12:11:16;15.00;;;11.17;;
18280;SDS011;9266;51.132;17.062;2023-04-06T12:13:44;15.40;;;10.63;;
18280;SDS011;9266;51.132;17.062;2023-04-06T12:16:14;12.53;;;9.57;;
18280;SDS011;9266;51.132;17.062;2023-04-06T12:18:41;10.97;;;9.63;;
18280;SDS011;9266;51.132;17.062;2023-04-06T12:21:09;12.20;;;10.23;;
18280;SDS011;9266;51.132;17.062;2023-04-06T12:23:36;12.10;;;9.50;;
18280;SDS011;9266;51.132;17.062;2023-04-06T12:26:03;13.30;;;9.67;;
18280;SDS011;9266;51.132;17.062;2023-04-06T12:28:31;12.57;;;10.17;;
18280;SDS011;9266;51.132;17.062;2023-04-06T12:30:58;13.40;;;10.30;;
18280;SDS011;9266;51.132;17.062;2023-04-06T12:33:25;11.67;;;10.47;;
18280;SDS011;9266;51.132;17.062;2023-04-06T12:35:52;12.17;;;10.17;;
18280;SDS011;9266;51.132;17.062;2023-04-06T12:38:21;13.73;;;9.57;;
18280;SDS011;9266;51.132;17.062;2023-04-06T12:40:49;13.03;;;10.13;;
18280;SDS011;9266;51.132;17.062;2023-04-06T12:43:16;12.10;;;9.57;;
18280;SDS011;9266;51.132;17.062;2023-04-06T12:45:43;13.40;;;9.87;;
18280;SDS011;9266;51.132;17.062;2023-04-06T12:48:11;11.90;;;9.53;;
18280;SDS011;9266;51.132;17.062;2023-04-06T12:50:38;11.50;;;9.40;;
18280;SDS011;9266;51.132;17.062;2023-04-06T12:53:05;14.33;;;9.33;;
18280;SDS011;9266;51.132;17.062;2023-04-06T12:55:34;13.13;;;9.60;;
18280;SDS011;9266;51.132;17.062;2023-04-06T12:58:01;10.03;;;8.80;;
18280;SDS011;9266;51.132;17.062;2023-04-06T13:00:28;9.90;;;8.90;;
18280;SDS011;9266;51.132;17.062;2023-04-06T13:02:56;9.57;;;7.17;;
18280;SDS011;9266;51.132;17.062;2023-04-06T13:05:23;9.13;;;8.23;;
18280;SDS011;9266;51.132;17.062;2023-04-06T13:07:50;9.70;;;7.97;;
18280;SDS011;9266;51.132;17.062;2023-04-06T13:10:17;10.43;;;7.93;;
18280;SDS011;9266;51.132;17.062;2023-04-06T13:12:46;9.67;;;8.07;;
18280;SDS011;9266;51.132;17.062;2023-04-06T13:15:13;12.93;;;9.23;;
18280;SDS011;9266;51.132;17.062;2023-04-06T13:17:41;10.57;;;9.20;;
18280;SDS011;9266;51.132;17.062;2023-04-06T13:20:09;10.03;;;7.47;;
18280;SDS011;9266;51.132;17.062;2023-04-06T13:22:36;8.47;;;7.50;;
18280;SDS011;9266;51.132;17.062;2023-04-06T13:25:03;9.30;;;7.80;;
18280;SDS011;9266;51.132;17.062;2023-04-06T13:27:30;10.27;;;8.40;;
18280;SDS011;9266;51.132;17.062;2023-04-06T13:30:01;10.97;;;8.10;;
18280;SDS011;9266;51.132;17.062;2023-04-06T13:32:29;7.90;;;6.93;;
18280;SDS011;9266;51.132;17.062;2023-04-06T13:34:56;11.90;;;7.53;;
18280;SDS011;9266;51.132;17.062;2023-04-06T13:37:23;10.13;;;7.33;;
18280;SDS011;9266;51.132;17.062;2023-04-06T13:39:50;8.40;;;7.60;;
18280;SDS011;9266;51.132;17.062;2023-04-06T13:42:17;9.37;;;8.00;;
18280;SDS011;9266;51.132;17.062;2023-04-06T13:44:44;11.50;;;8.20;;
18280;SDS011;9266;51.132;17.062;2023-04-06T13:47:14;9.30;;;7.70;;
18280;SDS011;9266;51.132;17.062;2023-04-06T13:49:41;8.97;;;7.77;;
18280;SDS011;9266;51.132;17.062;2023-04-06T13:52:08;9.67;;;8.67;;
18280;SDS011;9266;51.132;17.062;2023-04-06T13:54:36;13.07;;;9.77;;
18280;SDS011;9266;51.132;17.062;2023-04-06T13:57:03;9.97;;;8.97;;
18280;SDS011;9266;51.132;17.062;2023-04-06T13:59:32;17.57;;;14.70;;
18280;SDS011;9266;51.132;17.062;2023-04-06T14:02:00;11.27;;;9.20;;
18280;SDS011;9266;51.132;17.062;2023-04-06T14:04:28;10.30;;;8.47;;
18280;SDS011;9266;51.132;17.062;2023-04-06T14:06:55;13.73;;;9.10;;
18280;SDS011;9266;51.132;17.062;2023-04-06T14:09:23;10.37;;;9.27;;
18280;SDS011;9266;51.132;17.062;2023-04-06T14:11:50;13.90;;;9.50;;
18280;SDS011;9266;51.132;17.062;2023-04-06T14:14:17;11.27;;;9.43;;
18280;SDS011;9266;51.132;17.062;2023-04-06T14:16:44;13.37;;;9.13;;
18280;SDS011;9266;51.132;17.062;2023-04-06T14:19:12;10.67;;;8.93;;
18280;SDS011;9266;51.132;17.062;2023-04-06T14:21:44;11.30;;;8.47;;
18280;SDS011;9266;51.132;17.062;2023-04-06T14:24:11;10.47;;;9.17;;
18280;SDS011;9266;51.132;17.062;2023-04-06T14:26:39;10.13;;;8.60;;
18280;SDS011;9266;51.132;17.062;2023-04-06T14:29:08;10.67;;;8.47;;
18280;SDS011;9266;51.132;17.062;2023-04-06T14:31:35;10.80;;;8.80;;